Página principal
METAR-TAF:

METAR-TAF

Aeroportos :

Tahoua, Níger

latitude: 14-54N, longitude: 005-15E, altura: 386 m

Observação actual do tempo

O boletim foi feito há 1 hora e 10 minutos, às 10:00 UTC
Vento 10 kt de oeste
Temperatura 33°C
Humidade 56%
Pressão 1010 hPa
Visibilidade 10 km ou mais
Poucas nuvensa uma altura de 3000 ft

METAR: DRRT 191000Z 26010KT 9999 FEW030 33/23 Q1010

Hora: 12:10 (11:10 UTC)


TAF: em falta

Observações e previsões do tempo de mais de 4000 aeroportos (mensagens METAR e TAF).

As estações disponíveis são os pontos amarelos e vermelhos sobre o mapa.

Mova o rato sobre o mapa para ver o nome da estação.

Depois clique no ponto para visualizar as observações e previsões meteorológicas.

Para alterar o mapa : clique nos botões verdes com uma cruz preta para aumentar o zoom; no botão verde com uma pitada de zoom; ou nas setas verdes para mapas adjacentes.


METAR-TAF: